Time;durP1;ratioP1;P1;durP2;ratioP2;P2;SDS_P1;SDS_P2;PMS_P1;PMS_P2;Temp;Humidity;BMP_temperature;BMP_pressure;BME280_temperature;BME280_humidity;BME280_pressure;Samples;Min_cycle;Max_cycle;Signal;HPM_P1;HPM_P2
2022/06/09 00:00:59;;;;;;;8.57;6.80;;;;;;;15.74;100.00;63624.44;5103503;28;20215;-77
2022/06/09 00:03:30;;;;;;;8.93;5.80;;;;;;;15.78;100.00;63629.13;5099718;28;20267;-76
2022/06/09 00:05:57;;;;;;;9.60;6.82;;;;;;;15.72;100.00;63619.81;5101901;28;20223;-76
2022/06/09 00:08:25;;;;;;;5.90;5.32;;;;;;;15.70;100.00;63615.16;5103785;28;20198;-77
2022/06/09 00:10:58;;;;;;;10.73;6.50;;;;;;;15.65;100.00;63613.03;5102460;28;20216;-77
2022/06/09 00:13:25;;;;;;;9.02;6.03;;;;;;;15.63;100.00;63610.97;5096395;28;20235;-76
2022/06/09 00:15:54;;;;;;;5.95;5.40;;;;;;;15.51;100.00;63600.56;5083455;28;20216;-76
2022/06/09 00:18:21;;;;;;;13.27;6.55;;;;;;;15.47;100.00;63596.91;5085299;28;20196;-77
2022/06/09 00:20:48;;;;;;;10.77;5.90;;;;;;;15.50;100.00;63602.59;5103245;28;20230;-76
2022/06/09 00:23:16;;;;;;;7.43;5.75;;;;;;;15.45;100.00;63599.44;5088475;28;20510;-77
2022/06/09 00:25:43;;;;;;;6.78;5.32;;;;;;;15.48;100.00;63597.94;5082724;28;20250;-76
2022/06/09 00:28:10;;;;;;;6.32;5.80;;;;;;;15.52;100.00;63601.56;5089493;28;20400;-76
2022/06/09 00:30:37;;;;;;;6.03;5.43;;;;;;;15.48;100.00;63597.94;5100298;28;20227;-77
2022/06/09 00:33:06;;;;;;;5.20;4.57;;;;;;;15.53;100.00;63605.69;5100193;28;20196;-75
2022/06/09 00:35:33;;;;;;;5.45;5.05;;;;;;;15.52;100.00;63604.16;5103230;28;20253;-76
2022/06/09 00:38:00;;;;;;;5.63;4.93;;;;;;;15.55;100.00;63605.22;5102404;28;20203;-76
2022/06/09 00:40:27;;;;;;;5.93;5.20;;;;;;;15.56;100.00;63605.75;5097410;28;20513;-76
2022/06/09 00:42:54;;;;;;;5.45;5.03;;;;;;;15.61;100.00;63614.03;5096534;28;20499;-76
2022/06/09 00:45:27;;;;;;;8.77;5.45;;;;;;;15.60;100.00;63609.91;5103149;28;20473;-76
2022/06/09 00:48:01;;;;;;;7.28;5.15;;;;;;;15.65;100.00;63612.53;5102873;28;20321;-77
2022/06/09 00:50:32;;;;;;;6.05;5.38;;;;;;;15.58;100.00;63613.47;5098448;28;20218;-76
2022/06/09 00:53:09;;;;;;;11.93;5.07;;;;;;;15.66;100.00;63619.22;5103314;28;20237;-75
2022/06/09 00:55:36;;;;;;;6.30;5.70;;;;;;;15.68;100.00;63618.22;5103258;28;20218;-76
2022/06/09 00:58:08;;;;;;;7.10;5.57;;;;;;;15.76;100.00;63627.06;5097712;28;20394;-76
2022/06/09 01:00:40;;;;;;;5.63;5.13;;;;;;;15.83;100.00;63636.91;5102168;28;20219;-76
2022/06/09 01:03:08;;;;;;;7.45;4.95;;;;;;;15.84;100.00;63637.94;5102815;28;20199;-76
2022/06/09 01:05:40;;;;;;;8.73;5.30;;;;;;;15.88;100.00;63644.13;5104787;28;20235;-76
2022/06/09 01:08:10;;;;;;;6.22;5.25;;;;;;;15.85;100.00;63635.88;5097729;28;20207;-76
2022/06/09 01:10:38;;;;;;;6.63;5.95;;;;;;;15.96;100.00;63647.34;5105240;28;20277;-76
2022/06/09 01:13:05;;;;;;;8.23;5.38;;;;;;;16.01;100.00;63650.47;5107331;28;20203;-76
2022/06/09 01:15:39;;;;;;;7.82;6.20;;;;;;;16.05;100.00;63659.25;5105109;28;20215;-76
2022/06/09 01:18:18;;;;;;;11.13;7.40;;;;;;;16.10;100.00;63661.91;5098364;28;20194;-76
2022/06/09 01:20:54;;;;;;;11.82;8.88;;;;;;;16.01;100.00;63655.59;5106293;28;20238;-76
2022/06/09 01:24:05;;;;;;;11.15;7.22;;;;;;;16.03;100.00;63654.63;5101815;28;20273;-75
2022/06/09 01:27:20;;;;;;;10.75;8.02;;;;;;;16.03;100.00;63657.69;5083525;28;20325;-76
2022/06/09 01:29:56;;;;;;;11.02;7.65;;;;;;;16.07;100.00;63656.72;5112091;28;20219;-76
2022/06/09 01:32:30;;;;;;;7.97;7.18;;;;;;;16.10;100.00;63667.03;5108288;28;20496;-76
2022/06/09 01:35:11;;;;;;;5.97;5.47;;;;;;;16.12;100.00;63663.97;5100560;28;20219;-76
2022/06/09 01:37:42;;;;;;;7.82;5.82;;;;;;;16.03;100.00;63654.63;5096278;28;20270;-76
2022/06/09 01:40:12;;;;;;;5.90;5.40;;;;;;;15.97;100.00;63645.81;5106690;28;20410;-76
2022/06/09 01:42:42;;;;;;;6.20;5.63;;;;;;;15.97;100.00;63650.94;5103106;28;20204;-76
2022/06/09 01:45:14;;;;;;;5.90;5.30;;;;;;;16.01;100.00;63655.09;5101945;28;20215;-76
2022/06/09 01:47:49;;;;;;;6.22;5.65;;;;;;;15.89;100.00;63642.63;5105932;28;20200;-75
2022/06/09 01:50:24;;;;;;;7.82;5.97;;;;;;;15.88;100.00;63641.56;5104782;28;20219;-75
2022/06/09 01:52:53;;;;;;;11.68;5.32;;;;;;;15.86;100.00;63634.88;5102547;28;20199;-75
2022/06/09 01:55:23;;;;;;;8.43;5.68;;;;;;;15.76;100.00;63629.09;5106136;28;20220;-76
2022/06/09 01:57:57;;;;;;;6.97;5.57;;;;;;;15.62;100.00;63617.09;5103065;28;20207;-75
2022/06/09 02:00:25;;;;;;;7.65;5.97;;;;;;;15.78;100.00;63631.19;5085912;28;20209;-76
2022/06/09 02:02:59;;;;;;;6.15;5.65;;;;;;;15.86;100.00;63637.44;5103409;28;20206;-76
2022/06/09 02:05:28;;;;;;;7.75;6.57;;;;;;;15.97;100.00;63645.81;5106068;28;20235;-77
2022/06/09 02:07:58;;;;;;;8.13;7.43;;;;;;;15.99;100.00;63653.03;5101356;28;20204;-77
2022/06/09 02:10:31;;;;;;;7.93;6.70;;;;;;;16.04;100.00;63653.59;5104007;28;20226;-77
2022/06/09 02:13:02;;;;;;;8.10;6.50;;;;;;;16.12;100.00;63669.63;5105425;28;20199;-76
2022/06/09 02:15:33;;;;;;;6.80;6.15;;;;;;;16.18;100.00;63673.31;5104459;28;20253;-76
2022/06/09 02:18:06;;;;;;;6.82;6.10;;;;;;;16.14;100.00;63666.03;5104145;28;20237;-76
2022/06/09 02:20:33;;;;;;;8.18;5.25;;;;;;;16.06;100.00;63655.16;5103321;28;20219;-76
2022/06/09 02:23:00;;;;;;;5.28;4.78;;;;;;;16.04;100.00;63658.22;5105551;28;20527;-76
2022/06/09 02:25:27;;;;;;;11.63;5.65;;;;;;;15.87;100.00;63632.84;5101339;28;20273;-76
2022/06/09 02:27:54;;;;;;;7.00;5.00;;;;;;;15.86;100.00;63637.44;5094759;28;20230;-76
2022/06/09 02:30:21;;;;;;;7.55;5.65;;;;;;;15.63;100.00;63613.03;5105166;28;20223;-75
2022/06/09 02:32:48;;;;;;;8.57;5.30;;;;;;;15.50;100.00;63604.63;5105023;28;20196;-76
2022/06/09 02:35:16;;;;;;;7.57;5.35;;;;;;;15.24;100.00;63572.97;5098404;28;20257;-75
2022/06/09 02:37:43;;;;;;;7.68;6.88;;;;;;;15.21;100.00;63574.47;5098723;28;20238;-75
2022/06/09 02:40:10;;;;;;;13.98;10.27;;;;;;;15.06;100.00;63554.78;5105563;28;20215;-76
2022/06/09 02:42:37;;;;;;;7.68;5.90;;;;;;;15.21;100.00;63569.34;5105425;28;20487;-75
2022/06/09 02:45:09;;;;;;;7.13;6.53;;;;;;;15.28;100.00;63577.13;5100322;28;20254;-76
2022/06/09 02:47:36;;;;;;;8.15;5.43;;;;;;;15.40;100.00;63591.69;5102662;28;20212;-76
2022/06/09 02:50:03;;;;;;;6.10;5.60;;;;;;;15.46;100.00;63600.50;5101284;28;20220;-75
2022/06/09 02:52:31;;;;;;;6.10;5.50;;;;;;;15.44;100.00;63593.78;5101507;28;20246;-76
2022/06/09 02:54:58;;;;;;;6.25;5.72;;;;;;;15.50;100.00;63596.94;5101959;28;20509;-75
2022/06/09 02:57:26;;;;;;;6.38;5.78;;;;;;;15.61;100.00;63610.94;5103962;28;20524;-76
2022/06/09 02:59:53;;;;;;;7.47;6.00;;;;;;;15.54;100.00;63606.75;5104909;28;20266;-75
2022/06/09 03:02:21;;;;;;;7.55;5.43;;;;;;;15.65;100.00;63618.19;5102787;28;20271;-75
2022/06/09 03:04:48;;;;;;;7.25;6.00;;;;;;;15.68;100.00;63615.66;5102569;28;20228;-76
2022/06/09 03:07:15;;;;;;;6.95;6.10;;;;;;;15.75;100.00;63625.50;5105211;28;20273;-75
2022/06/09 03:09:43;;;;;;;7.50;5.90;;;;;;;15.81;100.00;63631.72;5104362;28;20252;-75
2022/06/09 03:12:11;;;;;;;9.55;5.82;;;;;;;15.82;100.00;63630.22;5101026;28;20200;-76
2022/06/09 03:14:38;;;;;;;6.55;6.00;;;;;;;15.90;100.00;63643.66;5102891;28;20545;-76
2022/06/09 03:17:06;;;;;;;54.63;40.47;;;;;;;15.98;100.00;63646.84;5104600;28;20243;-76
2022/06/09 03:19:33;;;;;;;8.15;7.07;;;;;;;16.01;100.00;63647.91;5103484;28;20284;-77
2022/06/09 03:22:00;;;;;;;6.60;6.05;;;;;;;16.06;100.00;63660.31;5099636;28;20207;-75
2022/06/09 03:24:27;;;;;;;8.25;5.50;;;;;;;16.13;100.00;63670.16;5104497;28;20220;-75
2022/06/09 03:26:56;;;;;;;6.80;5.38;;;;;;;16.12;100.00;63664.50;5103830;28;20231;-76
2022/06/09 03:29:23;;;;;;;10.27;6.65;;;;;;;16.16;100.00;63668.66;5101618;28;20216;-76
2022/06/09 03:31:51;;;;;;;6.93;6.07;;;;;;;16.14;100.00;63663.47;5101355;28;20200;-75
2022/06/09 03:34:18;;;;;;;7.97;7.10;;;;;;;16.20;100.00;63672.81;5103757;28;20520;-75
2022/06/09 03:36:45;;;;;;;8.80;6.25;;;;;;;16.29;100.00;63676.00;5104396;28;20294;-75
2022/06/09 03:39:14;;;;;;;6.30;5.70;;;;;;;16.42;100.00;63694.66;5103711;28;20220;-76
2022/06/09 03:41:41;;;;;;;6.72;6.03;;;;;;;16.60;100.00;63716.50;5099372;28;20260;-75
2022/06/09 03:44:09;;;;;;;6.22;5.70;;;;;;;16.57;100.00;63710.28;5104202;28;20215;-75
2022/06/09 03:46:37;;;;;;;6.93;6.32;;;;;;;16.44;100.00;63701.88;5104549;28;20227;-75
2022/06/09 03:49:04;;;;;;;10.77;6.80;;;;;;;16.54;100.00;63709.72;5101146;28;20200;-75
2022/06/09 03:51:31;;;;;;;9.35;6.57;;;;;;;16.62;100.00;63720.63;5100764;28;20213;-75
2022/06/09 03:53:58;;;;;;;6.90;6.03;;;;;;;16.82;100.00;63738.88;5104194;28;20234;-75
2022/06/09 03:56:25;;;;;;;9.68;6.97;;;;;;;16.98;100.00;63756.03;5102238;28;20263;-76
2022/06/09 03:58:52;;;;;;;7.20;6.53;;;;;;;17.08;100.00;63763.88;5090342;28;20202;-75
2022/06/09 04:01:20;;;;;;;8.10;6.60;;;;;;;16.92;100.00;63747.22;5103180;28;20249;-76
2022/06/09 04:03:49;;;;;;;10.50;6.70;;;;;;;16.72;100.00;63728.97;5104639;28;20196;-75
2022/06/09 04:06:18;;;;;;;6.43;5.80;;;;;;;16.79;100.00;63735.75;5097813;28;20227;-75
2022/06/09 04:08:45;;;;;;;9.15;6.63;;;;;;;16.81;100.00;63738.34;5095516;28;20203;-75
2022/06/09 04:11:12;;;;;;;6.60;6.00;;;;;;;16.90;100.00;63744.63;5102281;28;20210;-76
2022/06/09 04:13:39;;;;;;;9.88;7.80;;;;;;;17.17;100.00;63775.81;5103098;28;20214;-75
2022/06/09 04:16:15;;;;;;;9.70;8.48;;;;;;;17.34;100.00;63798.16;5090721;28;20547;-76
2022/06/09 04:18:43;;;;;;;10.45;9.30;;;;;;;17.32;100.00;63786.28;5103009;28;20199;-76
2022/06/09 04:21:10;;;;;;;10.27;8.07;;;;;;;17.46;100.00;63802.41;5103551;28;20192;-76
2022/06/09 04:23:37;;;;;;;10.27;9.20;;;;;;;17.64;100.00;63818.56;5101930;28;20214;-76
2022/06/09 04:26:04;;;;;;;12.98;9.95;;;;;;;17.18;100.00;63773.75;5088663;28;20249;-77
2022/06/09 04:28:31;;;;;;;11.85;10.25;;;;;;;17.20;100.00;63778.41;5102622;28;20211;-77
2022/06/09 04:30:58;;;;;;;16.25;11.60;;;;;;;17.03;100.00;63756.09;5103710;28;20215;-75
2022/06/09 04:33:25;;;;;;;11.55;10.27;;;;;;;16.84;100.00;63738.38;5100434;28;20432;-77
2022/06/09 04:35:53;;;;;;;13.95;10.50;;;;;;;16.63;100.00;63717.06;5089153;28;20219;-76
2022/06/09 04:38:20;;;;;;;15.10;11.15;;;;;;;16.69;100.00;63723.28;5101382;28;20522;-76
2022/06/09 04:40:47;;;;;;;16.35;10.82;;;;;;;16.55;100.00;63708.72;5100612;28;20551;-76
2022/06/09 04:43:15;;;;;;;20.83;13.18;;;;;;;16.37;100.00;63692.03;5100068;28;20216;-77
2022/06/09 04:45:42;;;;;;;17.40;12.52;;;;;;;16.16;100.00;63665.56;5105293;28;20454;-76
2022/06/09 04:48:10;;;;;;;16.33;12.38;;;;;;;16.30;100.00;63674.47;5104079;28;20260;-77
2022/06/09 04:50:39;;;;;;;16.67;13.05;;;;;;;16.43;100.00;63693.63;5100329;28;20220;-77
2022/06/09 04:53:09;;;;;;;15.45;12.13;;;;;;;16.54;100.00;63709.72;5100080;28;20203;-76
2022/06/09 04:55:36;;;;;;;16.20;12.30;;;;;;;16.51;100.00;63704.03;5102725;28;20442;-77
2022/06/09 04:58:03;;;;;;;18.60;11.90;;;;;;;16.67;100.00;63723.78;5103065;28;20192;-76
2022/06/09 05:00:30;;;;;;;19.70;12.68;;;;;;;16.93;100.00;63750.84;5099825;28;20215;-77
2022/06/09 05:02:59;;;;;;;17.20;12.70;;;;;;;16.82;100.00;63731.16;5102638;28;20227;-76
2022/06/09 05:05:30;;;;;;;13.68;11.20;;;;;;;17.02;100.00;63757.09;5103788;28;20212;-77
2022/06/09 05:07:57;;;;;;;14.02;11.48;;;;;;;17.18;100.00;63774.28;5088402;28;20239;-77
2022/06/09 05:10:27;;;;;;;16.13;11.88;;;;;;;17.42;100.00;63798.22;5101227;28;20455;-77
2022/06/09 05:12:55;;;;;;;14.23;11.57;;;;;;;17.50;100.00;63812.25;5103287;28;20210;-77
2022/06/09 05:15:23;;;;;;;13.63;10.68;;;;;;;17.62;100.00;63819.59;5103080;28;20227;-77
2022/06/09 05:17:51;;;;;;;11.50;10.25;;;;;;;17.57;100.00;63814.38;5099091;28;20196;-77
2022/06/09 05:20:20;;;;;;;15.40;10.73;;;;;;;17.65;100.00;63822.19;5103456;28;20254;-77
2022/06/09 05:22:47;;;;;;;13.02;10.57;;;;;;;17.54;100.00;63810.72;5098174;28;20199;-77
2022/06/09 05:25:15;;;;;;;11.82;9.20;;;;;;;17.48;100.00;63807.56;5091079;28;20211;-77
2022/06/09 05:27:44;;;;;;;12.40;10.57;;;;;;;17.73;100.00;63831.03;5102035;28;20222;-76
2022/06/09 05:30:26;;;;;;;11.93;9.23;;;;;;;17.95;100.00;63856.53;5102635;28;20254;-77
2022/06/09 05:32:53;;;;;;;14.82;9.32;;;;;;;18.36;100.00;63893.59;5101084;28;20200;-77
2022/06/09 05:35:22;;;;;;;10.52;9.13;;;;;;;18.40;100.00;63900.88;5097180;28;20418;-77
2022/06/09 05:46:15;;;;;;;12.55;8.73;;;;;;;18.06;100.00;63865.41;5102543;28;20266;-77
2022/06/09 05:48:42;;;;;;;11.18;8.52;;;;;;;17.91;100.00;63852.34;5090141;28;20212;-77
2022/06/09 05:51:09;;;;;;;11.13;9.38;;;;;;;18.11;100.00;63872.69;5083782;28;20539;-77
2022/06/09 05:53:36;;;;;;;11.93;9.07;;;;;;;18.39;100.00;63902.38;5095315;28;20434;-77
2022/06/09 05:56:04;;;;;;;11.10;8.55;;;;;;;18.61;100.00;63927.38;5106628;28;20219;-76
2022/06/09 05:58:33;;;;;;;9.25;8.00;;;;;;;18.53;100.00;63915.94;5106103;28;20199;-76
2022/06/09 06:01:01;;;;;;;11.10;8.98;;;;;;;18.49;100.00;63904.56;5101011;28;20218;-76
2022/06/09 06:03:28;;;;;;;13.88;9.75;;;;;;;18.70;100.00;63934.19;5095043;28;20192;-76
2022/06/09 06:08:40;;;;;;;16.38;11.40;;;;;;;18.30;100.00;63893.00;5086363;28;20271;-76
2022/06/09 06:11:07;;;;;;;15.70;11.30;;;;;;;18.22;100.00;63882.06;5094219;28;20235;-76
2022/06/09 06:13:35;;;;;;;14.75;10.75;;;;;;;18.38;100.00;63893.59;5105941;28;20421;-76
2022/06/09 06:16:02;;;;;;;13.70;11.40;;;;;;;18.57;100.00;63920.63;5105762;28;20211;-77
2022/06/09 06:18:30;;;;;;;13.50;10.65;;;;;;;18.79;100.00;63935.31;5098423;28;20208;-77
2022/06/09 06:20:58;;;;;;;16.60;11.93;;;;;;;18.94;100.00;63958.69;5094397;28;20215;-77
2022/06/09 06:23:25;;;;;;;14.13;11.32;;;;;;;18.75;100.00;63931.13;5106081;28;20476;-77
2022/06/09 06:25:53;;;;;;;14.02;11.95;;;;;;;18.58;100.00;63916.53;5088607;28;20246;-77
2022/06/09 06:28:21;;;;;;;12.63;11.20;;;;;;;19.05;100.00;63972.72;5103992;28;20629;-78
2022/06/09 06:30:49;;;;;;;13.77;11.05;;;;;;;19.50;100.00;64017.59;5103026;28;20253;-77
2022/06/09 06:33:16;;;;;;;17.67;11.45;;;;;;;19.49;100.00;64016.03;5104873;28;20196;-78
2022/06/09 06:35:44;;;;;;;13.77;10.88;;;;;;;19.46;100.00;64016.03;5105461;28;20216;-76
2022/06/09 06:38:11;;;;;;;15.43;11.75;;;;;;;19.55;100.00;64025.41;5100427;28;20200;-78
2022/06/09 06:40:38;;;;;;;13.95;11.05;;;;;;;19.09;100.00;63974.84;5086385;28;20278;-78
2022/06/09 06:43:06;;;;;;;14.18;11.52;;;;;;;18.87;100.00;63953.97;5102484;28;20211;-78
2022/06/09 06:45:33;;;;;;;14.52;10.65;;;;;;;19.14;100.00;63971.78;5104902;28;20211;-78
2022/06/09 06:48:01;;;;;;;14.88;10.75;;;;;;;19.27;100.00;63993.09;5102599;28;20276;-78
2022/06/09 06:50:28;;;;;;;12.07;10.73;;;;;;;19.25;100.00;63988.94;5106521;28;20448;-79
2022/06/09 06:52:55;;;;;;;11.73;10.48;;;;;;;19.20;100.00;63988.38;5105492;28;20234;-78
2022/06/09 06:55:29;;;;;;;15.73;11.50;;;;;;;18.39;100.00;63899.28;5099216;28;20211;-79
2022/06/09 06:58:06;;;;;;;14.73;12.43;;;;;;;18.59;100.00;63922.72;5106591;28;20195;-80
2022/06/09 07:00:33;;;;;;;14.55;13.05;;;;;;;18.58;100.00;63921.16;5109964;28;20223;-80
2022/06/09 07:03:02;;;;;;;19.98;12.93;;;;;;;18.51;100.00;63916.44;5108091;28;20219;-79
2022/06/09 07:05:29;;;;;;;16.48;13.82;;;;;;;18.82;100.00;63946.16;5111326;28;20253;-79
2022/06/09 07:07:56;;;;;;;16.13;11.63;;;;;;;18.95;100.00;63951.97;5110407;28;20230;-79
2022/06/09 07:10:24;;;;;;;14.05;11.35;;;;;;;19.34;100.00;63997.81;5111392;28;20242;-80
2022/06/09 07:12:51;;;;;;;11.43;10.23;;;;;;;19.64;100.00;64023.44;5105492;28;20195;-78
2022/06/09 07:15:18;;;;;;;12.20;10.45;;;;;;;19.94;100.00;64062.47;5107412;28;20572;-78
2022/06/09 07:17:45;;;;;;;15.43;10.23;;;;;;;20.25;100.00;64092.78;5109882;28;20195;-79
2022/06/09 07:20:14;;;;;;;10.48;9.48;;;;;;;20.02;100.00;64068.75;5110152;28;20242;-79
2022/06/09 07:22:41;;;;;;;10.70;9.63;;;;;;;19.94;100.00;64062.47;5111642;28;20196;-79
2022/06/09 07:25:11;;;;;;;9.25;8.30;;;;;;;20.33;100.00;64103.69;5110029;28;20216;-78
2022/06/09 07:27:38;;;;;;;10.05;8.55;;;;;;;20.48;100.00;64118.84;5100070;28;20240;-78
2022/06/09 07:30:06;;;;;;;10.43;9.30;;;;;;;20.76;100.00;64144.97;5094769;28;20216;-78
2022/06/09 07:32:33;;;;;;;13.32;10.15;;;;;;;20.90;100.00;64157.50;5104940;28;20274;-81
2022/06/09 07:35:01;;;;;;;11.70;9.77;;;;;;;21.31;100.00;64199.81;5094575;28;20216;-80
2022/06/09 07:37:29;;;;;;;12.27;9.65;;;;;;;21.60;100.00;64230.63;5091850;28;20208;-78
2022/06/09 07:39:56;;;;;;;14.43;9.00;;;;;;;21.45;100.00;64214.94;5112019;28;20212;-78
2022/06/09 07:42:24;;;;;;;13.77;10.23;;;;;;;21.07;100.00;64177.34;5118101;28;20219;-79
2022/06/09 07:44:51;;;;;;;12.93;11.23;;;;;;;20.68;100.00;64139.72;5122143;28;20225;-79
2022/06/09 07:47:18;;;;;;;11.98;9.88;;;;;;;20.23;100.00;64088.09;5124746;28;20232;-80
2022/06/09 07:49:45;;;;;;;12.77;11.50;;;;;;;19.86;100.00;64052.06;5119104;28;20211;-79
2022/06/09 07:52:12;;;;;;;15.88;12.10;;;;;;;19.98;100.00;64067.16;5124330;28;20187;-80
2022/06/09 07:54:41;;;;;;;14.43;11.45;;;;;;;20.41;100.00;64111.53;5120051;28;20218;-80
2022/06/09 07:57:09;;;;;;;17.13;10.52;;;;;;;20.73;100.00;64147.00;5115353;28;20195;-80
2022/06/09 07:59:36;;;;;;;13.18;10.40;;;;;;;21.18;100.00;64194.53;5118795;28;20211;-80
2022/06/09 08:02:03;;;;;;;11.93;10.63;;;;;;;21.40;100.00;64209.72;5123640;28;20201;-79
2022/06/09 08:04:30;;;;;;;9.95;9.15;;;;;;;21.54;100.00;64229.00;5121756;28;20212;-80
2022/06/09 08:06:57;;;;;;;10.80;9.70;;;;;;;21.62;98.54;64237.91;5121546;28;20211;-81
2022/06/09 08:09:24;;;;;;;11.82;10.73;;;;;;;21.59;98.36;64231.66;5114114;28;20219;-80
2022/06/09 08:11:52;;;;;;;11.07;10.00;;;;;;;21.97;97.41;64276.56;5118852;28;20251;-80
2022/06/09 08:14:19;;;;;;;11.45;10.35;;;;;;;22.31;95.66;64308.97;5123921;28;20210;-80
2022/06/09 08:16:47;;;;;;;16.13;11.00;;;;;;;22.37;94.41;64312.66;5121394;28;20226;-81
2022/06/09 08:19:14;;;;;;;12.27;9.18;;;;;;;22.53;94.07;64329.91;5116096;28;20217;-81
2022/06/09 08:21:42;;;;;;;11.20;10.10;;;;;;;22.83;92.26;64361.28;5122323;28;20190;-79
2022/06/09 08:24:09;;;;;;;10.57;9.32;;;;;;;22.98;88.03;64379.06;5120176;28;20210;-81
2022/06/09 08:26:36;;;;;;;10.88;9.13;;;;;;;22.55;90.06;64329.44;5121674;28;20351;-79
2022/06/09 08:29:04;;;;;;;14.82;9.77;;;;;;;22.12;89.06;64289.13;5120055;28;20218;-81
2022/06/09 08:31:31;;;;;;;14.38;9.68;;;;;;;22.19;92.37;64296.97;5111938;28;20187;-81
2022/06/09 08:33:58;;;;;;;11.50;9.65;;;;;;;22.16;95.58;64291.22;5120722;28;20514;-79
2022/06/09 08:36:25;;;;;;;14.18;11.10;;;;;;;22.24;94.80;64299.06;5122530;28;20194;-81
2022/06/09 08:38:53;;;;;;;13.68;11.15;;;;;;;22.52;92.08;64331.44;5121857;28;20207;-79
2022/06/09 08:41:37;;;;;;;14.00;10.95;;;;;;;22.61;92.09;64340.88;5103266;28;20195;-78
2022/06/09 08:44:13;;;;;;;13.13;10.50;;;;;;;22.96;91.60;64374.38;5103864;28;20232;-80
2022/06/09 08:46:49;;;;;;;10.80;9.68;;;;;;;23.21;92.48;64397.91;5106219;28;20187;-80
2022/06/09 08:49:39;;;;;;;12.55;10.30;;;;;;;23.65;87.85;64449.16;5097987;28;20279;-81
2022/06/09 08:52:17;;;;;;;11.48;9.85;;;;;;;23.54;85.26;64437.13;5103515;28;20195;-80
2022/06/09 08:54:44;;;;;;;10.38;9.27;;;;;;;23.47;79.90;64424.63;5105955;28;20215;-80
2022/06/09 08:57:17;;;;;;;11.90;9.88;;;;;;;23.74;79.34;64458.06;5096245;28;20217;-84
2022/06/09 08:59:54;;;;;;;9.75;8.85;;;;;;;23.90;76.79;64470.09;5088783;28;20269;-79
2022/06/09 09:02:28;;;;;;;15.35;9.13;;;;;;;24.18;74.31;64501.50;5102052;28;20195;-79
2022/06/09 09:05:05;;;;;;;13.85;9.20;;;;;;;23.77;78.42;64461.19;5107620;28;20226;-79
2022/06/09 09:07:35;;;;;;;11.35;10.18;;;;;;;22.78;82.13;64358.13;5102654;28;20217;-80
2022/06/09 09:10:15;;;;;;;12.57;10.38;;;;;;;22.46;85.50;64322.06;5107305;28;20211;-79
2022/06/09 09:12:48;;;;;;;10.50;9.45;;;;;;;22.30;88.28;64310.53;5108883;28;20187;-79
2022/06/09 09:15:24;;;;;;;9.75;8.77;;;;;;;22.77;89.64;64357.63;5108730;28;20237;-79
2022/06/09 09:17:56;;;;;;;14.10;10.35;;;;;;;22.70;85.29;64352.91;5103367;28;20187;-79
2022/06/09 09:20:30;;;;;;;13.85;9.55;;;;;;;22.52;86.71;64331.44;5108180;28;20223;-79
2022/06/09 09:23:08;;;;;;;11.40;9.30;;;;;;;22.26;88.24;64299.06;5107649;28;20194;-81
2022/06/09 09:25:44;;;;;;;13.63;10.27;;;;;;;22.30;88.88;64305.34;5102586;28;20215;-81
2022/06/09 09:28:18;;;;;;;9.63;8.73;;;;;;;22.26;86.62;64306.88;5103297;28;20235;-80
2022/06/09 09:30:56;;;;;;;12.27;9.68;;;;;;;22.29;83.67;64306.88;5091006;28;20216;-79
2022/06/09 09:33:24;;;;;;;10.38;9.32;;;;;;;22.18;84.98;64298.50;5102146;28;20195;-80
2022/06/09 09:35:57;;;;;;;10.50;9.50;;;;;;;22.60;84.59;64339.31;5107133;28;20222;-80
2022/06/09 09:38:32;;;;;;;15.48;9.85;;;;;;;22.96;84.10;64376.97;5110238;28;20195;-81
2022/06/09 09:41:01;;;;;;;10.15;9.07;;;;;;;23.23;80.52;64405.19;5113955;28;20281;-80
2022/06/09 09:43:36;;;;;;;14.48;9.60;;;;;;;23.57;76.99;64440.28;5106572;28;20211;-79
2022/06/09 09:46:05;;;;;;;9.13;8.23;;;;;;;23.27;77.70;64409.38;5089813;28;20260;-81
2022/06/09 09:48:44;;;;;;;9.73;8.85;;;;;;;23.16;79.72;64397.88;5105252;28;20242;-81
2022/06/09 09:51:13;;;;;;;10.32;7.15;;;;;;;23.10;76.98;64391.59;5110903;28;20195;-80
2022/06/09 09:53:51;;;;;;;9.10;8.32;;;;;;;23.35;79.41;64415.16;5094993;28;20215;-79
2022/06/09 09:56:33;;;;;;;9.35;8.48;;;;;;;23.46;78.49;64429.28;5088349;28;20552;-80
2022/06/09 09:59:03;;;;;;;9.88;7.93;;;;;;;23.42;77.98;64427.16;5088792;28;20200;-80
2022/06/09 10:08:35;;;;;;;8.65;7.75;;;;;;;23.30;79.77;64409.41;5102622;28;20190;-84
2022/06/09 10:10:15;;;;;;;10.48;8.38;;;;;;;23.27;80.88;64411.47;5109621;28;20275;-82
2022/06/09 10:12:45;;;;;;;14.73;8.63;;;;;;;23.16;81.82;64397.88;5112046;28;20531;-83
2022/06/09 10:15:17;;;;;;;11.85;8.73;;;;;;;23.09;78.12;64387.44;5106657;28;20215;-83
2022/06/09 10:18:03;;;;;;;11.45;7.40;;;;;;;23.24;79.25;64401.06;5110075;28;20203;-82
2022/06/09 10:20:34;;;;;;;12.90;7.70;;;;;;;23.49;76.43;64429.28;5106478;28;20227;-82
2022/06/09 10:23:21;;;;;;;6.97;6.28;;;;;;;23.45;75.34;64423.03;5105983;28;20191;-83
2022/06/09 10:25:56;;;;;;;10.07;7.30;;;;;;;23.15;76.57;64396.31;5110583;28;20280;-82
2022/06/09 10:28:36;;;;;;;8.15;6.90;;;;;;;22.84;76.67;64364.41;5105613;28;20218;-84
2022/06/09 10:31:27;;;;;;;7.80;7.00;;;;;;;22.92;77.38;64370.69;5111073;28;20217;-83
2022/06/09 10:34:00;;;;;;;8.68;6.72;;;;;;;23.37;74.96;64421.94;5110789;28;20237;-83
2022/06/09 10:36:37;;;;;;;7.03;6.45;;;;;;;23.60;70.59;64443.94;5110674;28;20200;-83
2022/06/09 10:39:14;;;;;;;9.90;6.03;;;;;;;23.26;70.62;64405.75;5111260;28;20207;-84
2022/06/09 10:41:47;;;;;;;7.63;6.93;;;;;;;23.15;75.39;64396.84;5113311;28;20499;-83
2022/06/09 10:44:21;;;;;;;6.43;5.82;;;;;;;23.29;76.88;64411.50;5113579;28;20294;-83
2022/06/09 10:55:27;;;;;;;6.22;5.28;;;;;;;23.52;77.74;64430.34;5089121;28;20273;-84
2022/06/09 10:58:01;;;;;;;6.35;5.47;;;;;;;23.70;78.99;64453.88;5088557;28;20195;-82
2022/06/09 11:00:31;;;;;;;6.68;6.03;;;;;;;24.21;74.30;64502.06;5096065;28;20239;-84
2022/06/09 11:03:00;;;;;;;6.72;5.63;;;;;;;24.53;70.15;64542.84;5105197;28;20187;-82
2022/06/09 11:05:38;;;;;;;5.88;5.38;;;;;;;24.85;66.79;64571.19;5103952;28;20269;-83
2022/06/09 11:08:13;;;;;;;8.18;5.30;;;;;;;24.91;63.00;64577.97;5108517;28;20246;-83
2022/06/09 11:10:54;;;;;;;6.03;5.53;;;;;;;24.67;68.64;64552.28;5107826;28;20242;-83
2022/06/09 11:13:43;;;;;;;8.20;6.13;;;;;;;24.35;68.90;64524.50;5098499;28;20200;-83
2022/06/09 11:16:17;;;;;;;4.38;4.18;;;;;;;24.35;71.07;64521.41;5088432;28;20220;-84
2022/06/09 11:19:02;;;;;;;5.60;5.05;;;;;;;24.56;73.46;64541.28;5088386;28;20219;-84
2022/06/09 11:21:36;;;;;;;7.25;5.03;;;;;;;25.04;70.89;64593.66;5091278;28;20263;-83
2022/06/09 11:24:19;;;;;;;5.03;4.47;;;;;;;25.39;66.89;64630.34;5088174;28;20206;-85
2022/06/09 11:26:53;;;;;;;5.70;5.07;;;;;;;25.58;57.96;64647.13;5103172;28;20506;-84
2022/06/09 11:29:42;;;;;;;5.32;4.80;;;;;;;25.41;57.19;64631.91;5107586;28;20230;-84
2022/06/09 11:32:13;;;;;;;5.55;4.80;;;;;;;25.57;56.92;64649.22;5106602;28;20241;-82
2022/06/09 11:35:02;;;;;;;5.10;4.65;;;;;;;25.60;58.11;64652.34;5106466;28;20221;-84
2022/06/09 11:37:42;;;;;;;6.10;5.25;;;;;;;25.45;60.16;64628.28;5103155;28;20184;-84
2022/06/09 11:40:22;;;;;;;5.07;4.50;;;;;;;25.45;61.23;64633.50;5109108;28;20214;-83
2022/06/09 11:43:01;;;;;;;6.43;5.15;;;;;;;25.48;61.27;64637.19;5118678;28;20252;-83
2022/06/09 11:45:33;;;;;;;5.05;4.50;;;;;;;25.88;58.33;64683.78;5117013;28;20554;-84
2022/06/09 11:48:04;;;;;;;6.25;5.25;;;;;;;25.64;52.31;64656.56;5112254;28;20207;-82
2022/06/09 11:50:38;;;;;;;5.95;4.60;;;;;;;25.46;55.63;64637.69;5113880;28;20222;-83
2022/06/09 11:53:08;;;;;;;7.60;5.25;;;;;;;25.88;55.73;64681.19;5117790;28;20213;-83
2022/06/09 11:58:42;;;;;;;5.55;4.95;;;;;;;24.45;56.58;64535.00;5114542;28;20242;-82
2022/06/09 12:01:20;;;;;;;5.72;4.60;;;;;;;24.26;59.07;64507.31;5101318;28;20330;-82
2022/06/09 12:04:03;;;;;;;8.55;5.20;;;;;;;24.19;57.79;64502.56;5112067;28;20209;-82
2022/06/09 12:06:44;;;;;;;8.98;4.95;;;;;;;24.63;57.22;64548.09;5111329;28;20196;-83